< < Back
Terminal Aerodrome Forecast


Current Version              Previous Versions:   1  2  3  4  5  6  7  8  9  

Terminal Aerodrome Forecast

473
FTUS42 KCHS 132320
TAFSAV
TAF
KSAV 132320Z 1400/1424 01005KT P6SM SKC
     FM141300 04012KT P6SM SCT250
     FM141900 08011KT P6SM SCT040 OVC200=



Latest METAR

683
SAUS80 KWBC 132300
MTRSAV
METAR KSAV 132253Z 33007KT 10SM CLR 10/M07 A3029 RMK AO2 SLP256
T01001072 $


USA.gov is the U.S. government's official web portal to all federal, state and local government web resources and services.